< < Back
Terminal Aerodrome Forecast


Current Version              Previous Versions:   1  2  3  4  5  6  7  8  9  

Terminal Aerodrome Forecast

065
FTUS42 KFFC 301120
TAFCSG
TAF
KCSG 301120Z 3012/0112 26003KT P6SM FEW008 SCT150
     FM301400 24008KT P6SM BKN040
     FM301600 24010KT P6SM VCSH BKN050
      TEMPO 3021/0101 VRB15G25KT 4SM TSRA BKN035CB
     FM010100 27008KT P6SM BKN060
     FM010600 26006KT 5SM BR SCT010 SCT060=

Latest METAR

304
SAUS70 KWBC 301300 RRV
MTRCSG
METAR KCSG 301351Z 28007KT 10SM SCT014 26/22 A3003 RMK AO2 SLP163
T02610217


USA.gov is the U.S. government's official web portal to all federal, state and local government web resources and services.